New Winchester, Ohio
Current Conditions -  °F | °C
As of 6:25 PM on Monday 20 Oct 2014 (Local Time) from KMNN Reporting Station
Overcast Overcast  
Wind Chill: 53°   Ceiling: 2900
Heat Index: 53°   Visibility: 8mi
Dew Point: 50°   Wind: 6mph
Humidity: 89%   Direction: 210°SSW
Pressure: 29.85"   Gusts: NA
Location:  40.815°N, 82.9723°W
Report Text: KMNN 202225Z AUTO 21005KT 8SM OVC029 12/10 A2985 RMK AO2 T01170100 TSNO
Loading
Personal Weather Stations






























Interactive Weather Map
Tropical Storm Tracking
New forecast layout! Learn more

10-Day Weather Forecast

Advertisements
Track Severe Weather on mobile